Terminal Aerodrome Forecast
Issued by NWS

Home | Current Version | Previous Version | Text Only | Print | Product List | Glossary On
Versions: 1 2 3 4 5 6 7 8 9 10 11 12 13 14 15 16 17 18 19 20 21
692
FTUS45 KTFX 061131
TAFHLN
TAF
KHLN 061131Z 0612/0712 27006KT P6SM SCT025 BKN060
     FM062100 VRB06KT P6SM VCSH SCT020 OVC035 PROB30 0700/0706 1SM
      -SN OVC010=

USA.gov is the U.S. government's official web portal to all federal, state and local government web resources and services.